Time;durP1;ratioP1;P1;durP2;ratioP2;P2;SDS_P1;SDS_P2;PMS_P1;PMS_P2;Temp;Humidity;BMP_temperature;BMP_pressure;BME280_temperature;BME280_humidity;BME280_pressure;Samples;Min_cycle;Max_cycle;Signal;HPM_P1;HPM_P2
2024/03/30 00:04:04;;;;;;;28.02;9.25;;;;;;;13.18;100.00;101425.53;10440224;28;20045;-77
2024/03/30 00:09:27;;;;;;;30.35;9.52;;;;;;;13.12;100.00;101426.34;10455295;28;20049;-77
2024/03/30 00:14:51;;;;;;;25.52;9.07;;;;;;;13.16;100.00;101422.84;10465056;28;20055;-78
2024/03/30 00:20:15;;;;;;;30.33;9.02;;;;;;;13.03;100.00;101418.19;10452818;28;20091;-78
2024/03/30 00:25:38;;;;;;;31.65;8.52;;;;;;;13.12;100.00;101413.09;10438673;28;20049;-77
2024/03/30 00:31:00;;;;;;;23.65;9.88;;;;;;;13.17;100.00;101413.13;10444279;28;20615;-77
2024/03/30 00:36:24;;;;;;;22.88;8.10;;;;;;;13.36;100.00;101414.31;10452355;28;20147;-78
2024/03/30 00:41:47;;;;;;;34.78;10.20;;;;;;;13.19;100.00;101416.72;10415750;28;20053;-77
2024/03/30 00:47:09;;;;;;;27.88;8.57;;;;;;;13.16;100.00;101417.56;10437531;28;20053;-78
2024/03/30 00:52:33;;;;;;;28.13;9.60;;;;;;;13.21;100.00;101420.25;10436070;28;20049;-78
2024/03/30 00:57:56;;;;;;;23.42;8.38;;;;;;;13.07;100.00;101412.06;10453924;28;20052;-77
2024/03/30 01:03:18;;;;;;;25.90;9.77;;;;;;;13.03;100.00;101412.00;10451438;28;20138;-77
2024/03/30 01:08:42;;;;;;;27.55;8.57;;;;;;;12.91;100.00;101412.69;10452412;28;20442;-78
2024/03/30 01:14:06;;;;;;;28.00;9.07;;;;;;;12.87;100.00;101412.59;10435633;28;20160;-77
2024/03/30 01:19:29;;;;;;;25.27;7.93;;;;;;;13.12;100.00;101420.09;10451614;28;20056;-78
2024/03/30 01:24:54;;;;;;;28.80;8.52;;;;;;;13.16;100.00;101421.97;10436415;28;20191;-79
2024/03/30 01:30:18;;;;;;;33.72;13.52;;;;;;;12.99;100.00;101420.78;10451462;28;20388;-78
2024/03/30 01:35:41;;;;;;;29.90;9.05;;;;;;;12.92;100.00;101406.53;10436678;28;20114;-77
2024/03/30 01:41:05;;;;;;;29.20;9.27;;;;;;;12.99;100.00;101416.38;10433406;28;20049;-77
2024/03/30 01:46:28;;;;;;;32.25;9.68;;;;;;;12.97;100.00;101425.16;10463382;28;20397;-78
2024/03/30 01:51:51;;;;;;;29.30;9.15;;;;;;;12.88;100.00;101438.22;10436429;28;20440;-78
2024/03/30 01:57:16;;;;;;;28.02;9.63;;;;;;;12.91;100.00;101446.25;10435571;28;20594;-78
2024/03/30 02:02:39;;;;;;;41.55;9.18;;;;;;;12.91;100.00;101428.59;10435455;28;20049;-77
2024/03/30 02:08:05;;;;;;;26.83;9.20;;;;;;;12.88;100.00;101440.88;10449029;28;20397;-78
2024/03/30 02:13:29;;;;;;;26.20;8.80;;;;;;;12.76;100.00;101437.16;10446612;28;20049;-78
2024/03/30 02:18:52;;;;;;;29.50;9.15;;;;;;;12.76;100.00;101437.16;10442480;28;20040;-77
2024/03/30 02:24:16;;;;;;;29.83;10.10;;;;;;;12.81;100.00;101446.94;10434646;28;20394;-78
2024/03/30 02:29:40;;;;;;;24.33;9.27;;;;;;;12.74;100.00;101438.88;10434963;28;20053;-78
2024/03/30 02:35:02;;;;;;;29.52;9.70;;;;;;;12.64;100.00;101436.94;10434896;28;20498;-77
2024/03/30 02:40:27;;;;;;;24.42;9.43;;;;;;;12.64;100.00;101438.72;10448629;28;20103;-77
2024/03/30 02:45:50;;;;;;;32.13;10.18;;;;;;;12.47;100.00;101442.81;10409324;28;20460;-78
2024/03/30 02:51:12;;;;;;;30.48;10.20;;;;;;;12.47;100.00;101448.97;10420230;28;20832;-78
2024/03/30 02:56:39;;;;;;;32.25;9.88;;;;;;;12.52;100.00;101449.97;10448364;28;20130;-77
2024/03/30 03:02:01;;;;;;;30.80;10.35;;;;;;;12.54;100.00;101458.81;10446533;28;20106;-77
2024/03/30 03:07:24;;;;;;;25.40;8.88;;;;;;;12.60;100.00;101458.94;10438425;28;20049;-78
2024/03/30 03:12:49;;;;;;;35.78;10.77;;;;;;;12.55;100.00;101470.31;10427226;28;20088;-77
2024/03/30 03:18:11;;;;;;;28.80;10.65;;;;;;;12.54;100.00;101463.22;10449435;28;20045;-77
2024/03/30 03:23:33;;;;;;;32.88;8.95;;;;;;;12.53;100.00;101472.06;10455329;28;20073;-77
2024/03/30 03:28:57;;;;;;;34.50;10.40;;;;;;;12.45;100.00;101478.97;10441334;28;20056;-78
2024/03/30 03:34:20;;;;;;;27.45;9.50;;;;;;;12.50;100.00;101480.81;10455791;28;20049;-77
2024/03/30 03:39:42;;;;;;;29.05;9.23;;;;;;;12.50;100.00;101483.47;10455898;28;20068;-77
2024/03/30 03:45:07;;;;;;;30.38;10.05;;;;;;;12.63;100.00;101480.19;10427671;28;20046;-79
2024/03/30 03:50:29;;;;;;;26.63;9.18;;;;;;;12.59;100.00;101491.59;10453572;28;20041;-78
2024/03/30 03:55:52;;;;;;;32.95;9.60;;;;;;;12.49;100.00;101489.63;10426872;28;20119;-77
2024/03/30 04:01:16;;;;;;;29.80;9.50;;;;;;;12.67;100.00;101494.38;10448541;28;20045;-78
2024/03/30 04:06:39;;;;;;;33.47;9.43;;;;;;;12.77;100.00;101491.94;10439920;28;20057;-78
2024/03/30 04:12:01;;;;;;;33.83;9.00;;;;;;;12.74;100.00;101493.63;10415505;28;20405;-78
2024/03/30 04:17:25;;;;;;;29.65;8.40;;;;;;;12.80;100.00;101496.38;10437977;28;20072;-77
2024/03/30 04:22:48;;;;;;;31.92;9.55;;;;;;;13.00;100.00;101499.41;10439530;28;20108;-78
2024/03/30 04:28:10;;;;;;;29.58;8.13;;;;;;;13.45;100.00;101494.03;10440133;28;20049;-78
2024/03/30 04:33:35;;;;;;;27.52;8.48;;;;;;;14.16;100.00;101497.69;10437989;28;20087;-78
2024/03/30 04:38:57;;;;;;;25.00;7.25;;;;;;;14.99;100.00;101500.41;10453322;28;20045;-77
2024/03/30 04:44:20;;;;;;;22.08;7.57;;;;;;;15.99;100.00;101494.06;10452996;28;20080;-77
2024/03/30 04:49:44;;;;;;;22.85;8.23;;;;;;;17.07;100.00;101504.22;10425976;28;20060;-77
2024/03/30 04:55:06;;;;;;;17.73;6.78;;;;;;;18.12;100.00;101489.84;10466241;28;20090;-78
2024/03/30 05:00:29;;;;;;;25.73;7.10;;;;;;;19.23;100.00;101494.59;10437895;28;20080;-78
2024/03/30 05:05:54;;;;;;;20.30;7.13;;;;;;;20.36;100.00;101492.56;10435059;28;20060;-77
2024/03/30 05:11:16;;;;;;;22.50;6.57;;;;;;;21.51;100.00;101497.09;10452178;28;20052;-77
2024/03/30 05:16:39;;;;;;;24.27;5.85;;;;;;;22.58;94.39;101503.03;10447038;28;20055;-78
2024/03/30 05:22:03;;;;;;;14.30;4.57;;;;;;;23.59;85.02;101503.38;10436968;28;20053;-78
2024/03/30 05:27:25;;;;;;;28.85;6.13;;;;;;;24.72;73.02;101501.94;10450429;28;20586;-77
2024/03/30 05:32:50;;;;;;;14.65;4.95;;;;;;;25.58;64.89;101506.34;10428664;28;20049;-78
2024/03/30 05:38:14;;;;;;;20.30;5.07;;;;;;;26.57;55.97;101498.19;10451164;28;20837;-78
2024/03/30 05:43:38;;;;;;;20.20;6.68;;;;;;;27.54;49.52;101495.19;10434513;28;20657;-78
2024/03/30 05:49:00;;;;;;;16.42;6.50;;;;;;;28.45;45.10;101497.38;10436553;28;20110;-77
2024/03/30 05:54:24;;;;;;;17.30;5.90;;;;;;;29.23;41.47;101489.06;10450746;28;20053;-78
2024/03/30 05:59:47;;;;;;;17.75;5.53;;;;;;;29.48;39.54;101496.88;10449011;28;20049;-78
2024/03/30 06:05:10;;;;;;;15.98;5.00;;;;;;;30.48;36.72;101496.06;10420178;28;20130;-78
2024/03/30 06:10:34;;;;;;;16.58;4.70;;;;;;;31.22;35.18;101483.66;10449759;28;20075;-78
2024/03/30 06:16:02;;;;;;;25.92;5.20;;;;;;;31.50;34.00;101493.81;10448878;28;20040;-78
2024/03/30 06:21:24;;;;;;;17.48;5.28;;;;;;;32.43;33.72;101504.47;10433524;28;20052;-78
2024/03/30 06:26:48;;;;;;;19.05;4.80;;;;;;;33.66;31.41;101503.63;10448288;28;20053;-78
2024/03/30 06:32:11;;;;;;;17.33;5.28;;;;;;;34.51;29.41;101503.06;10445131;28;20040;-78
2024/03/30 06:37:33;;;;;;;19.85;4.80;;;;;;;34.89;29.01;101506.63;10458548;28;20080;-78
2024/03/30 06:48:37;;;;;;;48.35;32.33;;;;;;;35.39;28.90;101504.69;10433657;28;20052;-79
2024/03/30 06:54:00;;;;;;;43.88;23.90;;;;;;;36.60;27.34;101510.66;10445826;28;20488;-78
2024/03/30 06:59:24;;;;;;;32.78;18.15;;;;;;;37.18;26.03;101522.41;10446608;28;20044;-78
2024/03/30 07:04:48;;;;;;;19.40;6.05;;;;;;;37.19;25.84;101526.91;10431719;28;20053;-78
2024/03/30 07:10:11;;;;;;;25.92;7.13;;;;;;;36.81;26.69;101536.47;10433695;28;20049;-78
2024/03/30 07:15:36;;;;;;;23.30;6.13;;;;;;;36.30;27.34;101542.41;10447339;28;20060;-78
2024/03/30 07:20:58;;;;;;;18.65;5.38;;;;;;;36.27;27.20;101539.03;10442019;28;20509;-78
2024/03/30 07:26:21;;;;;;;22.90;9.30;;;;;;;36.18;27.89;101531.50;10441720;28;20067;-78
2024/03/30 07:31:45;;;;;;;25.83;7.47;;;;;;;36.80;27.58;101539.34;10445276;28;20045;-77
2024/03/30 07:37:08;;;;;;;21.90;6.28;;;;;;;36.50;27.91;101542.69;10444572;28;20041;-77
2024/03/30 07:42:30;;;;;;;29.67;7.57;;;;;;;36.87;27.44;101537.84;10443944;28;20134;-77
2024/03/30 07:47:54;;;;;;;31.42;10.95;;;;;;;37.41;26.90;101546.16;10458718;28;20044;-77
2024/03/30 07:53:17;;;;;;;29.75;7.50;;;;;;;36.44;27.64;101538.56;10445110;28;20053;-77
2024/03/30 07:58:39;;;;;;;28.75;7.15;;;;;;;36.88;27.41;101554.25;10460742;28;20060;-77
2024/03/30 08:04:04;;;;;;;23.75;6.25;;;;;;;37.14;26.90;101556.75;10432858;28;20580;-76
2024/03/30 08:09:26;;;;;;;15.77;4.30;;;;;;;36.89;26.88;101555.97;10451756;28;20489;-77
2024/03/30 08:14:49;;;;;;;13.05;4.65;;;;;;;36.67;27.32;101561.50;10453772;28;20144;-77
2024/03/30 08:20:13;;;;;;;19.67;5.70;;;;;;;35.94;28.42;101567.31;10451867;28;20083;-77
2024/03/30 08:25:35;;;;;;;22.65;6.15;;;;;;;35.86;28.89;101558.78;10438850;28;20409;-77
2024/03/30 08:30:58;;;;;;;13.25;4.63;;;;;;;37.07;27.90;101568.25;10452935;28;20397;-76
2024/03/30 08:36:22;;;;;;;22.05;5.82;;;;;;;37.59;27.54;101565.78;10465301;28;20040;-77
2024/03/30 08:41:44;;;;;;;17.83;5.07;;;;;;;38.31;26.39;101574.22;10454432;28;20049;-77
2024/03/30 08:47:07;;;;;;;23.30;5.53;;;;;;;38.10;26.55;101555.78;10425442;28;20048;-75
2024/03/30 08:52:31;;;;;;;22.08;6.78;;;;;;;37.37;27.01;101556.56;10433053;28;20515;-76
2024/03/30 08:57:53;;;;;;;25.30;7.38;;;;;;;37.53;26.99;101564.41;10450537;28;20045;-76
2024/03/30 09:03:16;;;;;;;21.73;6.35;;;;;;;37.72;27.03;101563.72;10432469;28;20582;-76
2024/03/30 09:08:41;;;;;;;43.00;14.45;;;;;;;37.69;27.72;101566.75;10447195;28;20053;-77
2024/03/30 09:14:04;;;;;;;24.88;5.47;;;;;;;37.09;27.99;101557.06;10448768;28;20096;-77
2024/03/30 09:19:26;;;;;;;25.45;8.68;;;;;;;37.13;28.37;101555.00;10450392;28;20045;-76
2024/03/30 09:24:51;;;;;;;22.80;8.82;;;;;;;37.51;28.35;101552.63;10448422;28;20161;-75
2024/03/30 09:30:14;;;;;;;23.58;7.75;;;;;;;37.70;27.77;101554.72;10465112;28;20045;-76
2024/03/30 09:35:39;;;;;;;31.30;7.05;;;;;;;37.23;28.53;101553.19;10436780;28;20053;-77
2024/03/30 09:41:04;;;;;;;24.65;6.45;;;;;;;37.60;27.73;101551.00;10451571;28;20080;-76
2024/03/30 09:46:28;;;;;;;22.15;5.43;;;;;;;37.13;28.12;101552.22;10436392;28;20057;-76
2024/03/30 09:51:52;;;;;;;24.95;8.30;;;;;;;37.04;28.76;101529.03;10437197;28;20045;-76
2024/03/30 09:57:17;;;;;;;16.23;5.88;;;;;;;37.39;28.38;101535.25;10422738;28;20056;-77
2024/03/30 10:02:39;;;;;;;21.50;5.80;;;;;;;36.71;29.57;101532.72;10448938;28;20057;-76
2024/03/30 10:08:04;;;;;;;16.05;4.00;;;;;;;36.67;30.10;101528.47;10462922;28;20052;-76
2024/03/30 10:13:30;;;;;;;24.90;8.98;;;;;;;35.31;31.92;101513.56;10421925;28;20048;-77
2024/03/30 10:18:53;;;;;;;27.98;5.93;;;;;;;34.69;32.97;101502.59;10463676;28;20084;-76
2024/03/30 10:24:18;;;;;;;21.40;5.22;;;;;;;34.76;33.76;101501.19;10448065;28;20195;-77
2024/03/30 10:29:44;;;;;;;18.13;5.78;;;;;;;34.23;34.84;101499.56;10461930;28;20118;-76
2024/03/30 10:35:09;;;;;;;16.13;4.90;;;;;;;34.08;35.15;101502.47;10463043;28;20052;-76
2024/03/30 10:40:31;;;;;;;13.93;5.10;;;;;;;33.44;36.22;101494.13;10448887;28;20053;-76
2024/03/30 10:45:55;;;;;;;11.73;4.88;;;;;;;32.81;37.48;101497.44;10448603;28;20111;-76
2024/03/30 10:51:18;;;;;;;14.32;5.38;;;;;;;32.18;39.33;101494.22;10448126;28;20041;-77
2024/03/30 10:56:47;;;;;;;12.57;5.80;;;;;;;31.56;40.85;101482.53;10462311;28;20056;-76
2024/03/30 11:02:17;;;;;;;13.80;5.07;;;;;;;31.06;43.43;101477.34;10460898;28;20052;-76
2024/03/30 11:07:41;;;;;;;14.75;4.32;;;;;;;30.62;45.22;101479.88;10458351;28;20041;-76
2024/03/30 11:13:04;;;;;;;12.20;5.55;;;;;;;29.17;51.59;101481.22;10445821;28;20049;-76
2024/03/30 11:18:38;;;;;;;11.75;5.20;;;;;;;27.77;66.03;101470.63;10433592;28;20053;-76
2024/03/30 11:24:04;;;;;;;10.35;4.78;;;;;;;27.21;74.13;101468.50;10431284;28;20623;-76
2024/03/30 11:29:36;;;;;;;14.05;5.63;;;;;;;26.75;81.93;101465.88;10460906;28;20390;-76
2024/03/30 11:35:11;;;;;;;14.60;4.90;;;;;;;26.73;83.91;101454.22;10447273;28;20049;-76
2024/03/30 11:40:37;;;;;;;9.40;4.55;;;;;;;26.55;87.57;101458.56;10451308;28;20044;-77
2024/03/30 11:46:01;;;;;;;8.63;4.40;;;;;;;26.57;88.53;101451.25;10453626;28;20460;-76
2024/03/30 11:51:30;;;;;;;13.52;6.80;;;;;;;26.47;91.40;101445.31;10452962;28;20057;-76
2024/03/30 11:57:03;;;;;;;10.10;3.50;;;;;;;26.34;93.58;101456.69;10453704;28;20055;-76
2024/03/30 12:08:50;;;;;;;14.05;8.20;;;;;;;26.40;93.58;101459.16;10443583;28;20141;-75
2024/03/30 12:14:16;;;;;;;17.35;6.78;;;;;;;26.19;94.50;101467.13;10453428;28;20052;-76
2024/03/30 12:19:41;;;;;;;16.55;9.07;;;;;;;26.15;93.10;101454.66;10453173;28;20122;-77
2024/03/30 12:25:06;;;;;;;20.83;7.90;;;;;;;26.24;92.48;101444.41;10458904;28;20049;-77
2024/03/30 12:30:29;;;;;;;12.77;5.38;;;;;;;26.34;91.66;101451.25;10443375;28;20048;-77
2024/03/30 12:35:52;;;;;;;17.35;5.97;;;;;;;26.02;94.07;101447.94;10435445;28;20135;-77
2024/03/30 12:41:16;;;;;;;14.90;5.85;;;;;;;25.74;97.63;101448.06;10433274;28;20049;-77
2024/03/30 12:46:38;;;;;;;10.70;5.82;;;;;;;25.53;98.56;101453.34;10440269;28;20288;-76
2024/03/30 12:52:01;;;;;;;13.65;6.25;;;;;;;25.26;100.00;101444.34;10435579;28;20661;-76
2024/03/30 12:57:25;;;;;;;18.27;5.97;;;;;;;24.98;100.00;101458.78;10451846;28;20056;-76
2024/03/30 13:02:55;;;;;;;16.30;6.88;;;;;;;24.86;100.00;101456.47;10448743;28;20052;-75
2024/03/30 13:08:21;;;;;;;22.38;7.07;;;;;;;24.82;100.00;101453.88;10447893;28;20543;-76
2024/03/30 13:13:46;;;;;;;19.27;7.32;;;;;;;25.02;100.00;101456.84;10454624;28;20053;-77
2024/03/30 13:19:12;;;;;;;14.52;6.40;;;;;;;24.96;100.00;101446.25;10420342;28;20041;-77
2024/03/30 13:24:34;;;;;;;14.90;6.13;;;;;;;25.01;100.00;101450.56;10434555;28;20138;-77
2024/03/30 13:29:59;;;;;;;16.45;6.40;;;;;;;25.00;100.00;101447.94;10441219;28;20053;-76
2024/03/30 13:35:21;;;;;;;15.05;7.25;;;;;;;24.98;100.00;101439.88;10448120;28;20401;-76
2024/03/30 13:40:44;;;;;;;21.17;7.60;;;;;;;24.87;100.00;101446.53;10457791;28;20497;-77
2024/03/30 13:46:08;;;;;;;18.88;7.18;;;;;;;24.67;100.00;101449.88;10441096;28;20531;-78
2024/03/30 13:51:31;;;;;;;11.90;5.60;;;;;;;24.55;100.00;101437.63;10446400;28;20049;-77
2024/03/30 13:56:57;;;;;;;15.60;7.15;;;;;;;24.44;100.00;101439.78;10458097;28;20052;-78
2024/03/30 14:02:22;;;;;;;15.25;6.80;;;;;;;24.38;100.00;101429.19;10433054;28;20568;-77
2024/03/30 14:07:45;;;;;;;20.65;8.27;;;;;;;24.32;100.00;101421.28;10461610;28;20114;-77
2024/03/30 14:13:07;;;;;;;20.35;7.78;;;;;;;24.30;100.00;101412.31;10446644;28;20327;-76
2024/03/30 14:18:31;;;;;;;22.80;7.60;;;;;;;24.34;100.00;101408.63;10447391;28;20076;-76
2024/03/30 14:23:54;;;;;;;22.48;8.15;;;;;;;24.48;100.00;101402.78;10460740;28;20048;-76
2024/03/30 14:29:17;;;;;;;22.13;7.38;;;;;;;24.63;100.00;101394.19;10445345;28;20056;-77
2024/03/30 14:34:41;;;;;;;22.73;7.88;;;;;;;24.75;100.00;101396.47;10433247;28;20095;-78
2024/03/30 14:40:04;;;;;;;23.92;7.43;;;;;;;25.04;100.00;101384.75;10446316;28;20053;-77
2024/03/30 14:45:27;;;;;;;26.52;12.32;;;;;;;25.25;100.00;101381.28;10446555;28;20049;-78
2024/03/30 14:50:51;;;;;;;19.25;8.52;;;;;;;25.58;100.00;101390.06;10446685;28;20586;-75
2024/03/30 14:56:14;;;;;;;31.33;9.73;;;;;;;25.68;100.00;101391.47;10447475;28;20048;-78
2024/03/30 15:01:37;;;;;;;25.92;9.93;;;;;;;25.06;100.00;101399.09;10459426;28;20041;-77
2024/03/30 15:07:01;;;;;;;20.92;8.10;;;;;;;24.68;100.00;101385.94;10436187;28;20048;-77
2024/03/30 15:12:24;;;;;;;24.48;7.90;;;;;;;24.44;100.00;101390.31;10463545;28;20057;-77
2024/03/30 15:17:47;;;;;;;32.25;9.85;;;;;;;24.10;100.00;101388.59;10443958;28;20045;-77
2024/03/30 15:23:11;;;;;;;29.15;8.60;;;;;;;23.89;100.00;101386.56;10445203;28;20053;-77
2024/03/30 15:28:34;;;;;;;17.85;8.73;;;;;;;23.65;100.00;101376.47;10437827;28;20406;-76
2024/03/30 15:33:57;;;;;;;28.63;9.73;;;;;;;23.47;100.00;101380.56;10425474;28;20053;-76
2024/03/30 15:39:24;;;;;;;18.90;7.95;;;;;;;23.30;100.00;101390.91;10429837;28;20409;-77
2024/03/30 15:44:47;;;;;;;23.33;12.00;;;;;;;23.18;100.00;101384.00;10443876;28;20090;-76
2024/03/30 15:50:09;;;;;;;25.10;10.20;;;;;;;23.02;100.00;101394.31;10454151;28;20399;-74
2024/03/30 15:55:34;;;;;;;35.53;10.93;;;;;;;22.76;100.00;101410.25;10429331;28;20077;-76
2024/03/30 16:00:56;;;;;;;26.13;11.52;;;;;;;22.54;100.00;101408.94;10456691;28;20037;-76
2024/03/30 16:06:19;;;;;;;41.28;21.33;;;;;;;22.46;100.00;101408.22;10443339;28;20060;-76
2024/03/30 16:11:43;;;;;;;24.83;6.60;;;;;;;22.58;100.00;101405.25;10458553;28;20059;-76
2024/03/30 16:17:06;;;;;;;24.00;6.68;;;;;;;22.37;100.00;101403.06;10443809;28;20052;-76
2024/03/30 16:22:29;;;;;;;21.65;6.07;;;;;;;22.13;95.26;101402.69;10429986;28;20052;-77
2024/03/30 16:27:53;;;;;;;16.67;5.70;;;;;;;22.08;90.46;101414.47;10462385;28;20048;-76
2024/03/30 16:33:15;;;;;;;20.15;6.13;;;;;;;21.96;87.46;101417.41;10451859;28;20444;-77
2024/03/30 16:38:38;;;;;;;21.50;6.10;;;;;;;21.75;89.90;101413.31;10452398;28;20091;-77
2024/03/30 16:44:02;;;;;;;29.15;6.72;;;;;;;21.60;90.33;101421.66;10452420;28;20057;-76
2024/03/30 16:49:24;;;;;;;20.02;6.07;;;;;;;21.44;90.94;101423.78;10466247;28;20075;-76
2024/03/30 16:54:50;;;;;;;20.52;7.25;;;;;;;21.31;93.83;101423.13;10449583;28;20202;-77
2024/03/30 17:00:14;;;;;;;23.35;6.72;;;;;;;21.19;95.95;101431.41;10436138;28;20057;-76
2024/03/30 17:05:36;;;;;;;25.23;6.65;;;;;;;21.06;97.34;101432.50;10439012;28;20053;-76
2024/03/30 17:10:59;;;;;;;21.13;6.30;;;;;;;20.92;98.93;101443.44;10452343;28;20579;-77
2024/03/30 17:16:23;;;;;;;18.83;6.85;;;;;;;20.81;100.00;101442.72;10436948;28;20551;-76
2024/03/30 17:21:45;;;;;;;21.05;6.15;;;;;;;20.80;100.00;101448.13;10436419;28;20052;-76
2024/03/30 17:27:08;;;;;;;19.98;6.43;;;;;;;20.83;100.00;101465.06;10424256;28;20045;-76
2024/03/30 17:32:32;;;;;;;26.48;6.65;;;;;;;20.74;100.00;101467.91;10448481;28;20421;-77
2024/03/30 17:37:54;;;;;;;24.30;6.75;;;;;;;20.65;100.00;101476.06;10465168;28;20090;-76
2024/03/30 17:43:17;;;;;;;22.60;6.15;;;;;;;20.58;100.00;101475.28;10450918;28;20053;-76
2024/03/30 17:48:41;;;;;;;27.20;6.80;;;;;;;20.46;100.00;101483.50;10451019;28;20565;-77
2024/03/30 17:54:04;;;;;;;19.00;6.45;;;;;;;20.37;100.00;101493.44;10450947;28;20488;-76
2024/03/30 17:59:26;;;;;;;23.85;6.35;;;;;;;20.22;100.00;101494.47;10436037;28;20688;-77
2024/03/30 18:04:50;;;;;;;24.42;6.82;;;;;;;20.06;100.00;101514.34;10450392;28;20076;-76
2024/03/30 18:10:13;;;;;;;27.38;7.28;;;;;;;19.99;100.00;101512.66;10435474;28;20052;-77
2024/03/30 18:15:36;;;;;;;20.50;6.35;;;;;;;19.96;100.00;101518.03;10463725;28;20452;-77
2024/03/30 18:21:00;;;;;;;22.40;6.55;;;;;;;19.98;100.00;101533.19;10436073;28;20511;-77
2024/03/30 18:26:22;;;;;;;26.33;5.88;;;;;;;20.02;100.00;101526.03;10448704;28;20096;-76
2024/03/30 18:31:45;;;;;;;24.88;6.63;;;;;;;20.02;100.00;101534.06;10422318;28;20076;-76
2024/03/30 18:37:09;;;;;;;28.55;6.35;;;;;;;19.86;100.00;101539.59;10449150;28;20133;-76
2024/03/30 18:42:31;;;;;;;23.42;6.60;;;;;;;19.56;100.00;101545.22;10447450;28;20056;-77
2024/03/30 18:47:54;;;;;;;17.67;6.35;;;;;;;19.30;100.00;101549.84;10433610;28;20114;-76
2024/03/30 18:53:18;;;;;;;22.05;6.35;;;;;;;19.06;100.00;101549.16;10448735;28;20501;-77
2024/03/30 18:58:46;;;;;;;22.98;6.20;;;;;;;18.83;100.00;101551.09;10448987;28;20103;-77
2024/03/30 19:04:09;;;;;;;34.90;19.63;;;;;;;18.75;100.00;101550.22;10445933;28;20053;-77
2024/03/30 19:09:33;;;;;;;22.25;7.47;;;;;;;18.70;100.00;101558.28;10420153;28;20051;-76
2024/03/30 19:14:57;;;;;;;27.60;8.35;;;;;;;18.56;100.00;101557.47;10446122;28;20049;-76
2024/03/30 19:20:20;;;;;;;16.55;6.40;;;;;;;18.31;94.12;101561.94;10433374;28;20501;-76
2024/03/30 19:25:44;;;;;;;17.95;5.82;;;;;;;18.06;96.74;101554.91;10433837;28;20492;-76
2024/03/30 19:31:06;;;;;;;21.40;7.78;;;;;;;17.91;100.00;101566.53;10460597;28;20111;-76
2024/03/30 19:36:29;;;;;;;16.33;6.53;;;;;;;17.84;94.44;101569.22;10433907;28;20567;-77
2024/03/30 19:41:53;;;;;;;33.95;12.50;;;;;;;17.71;90.97;101564.78;10447244;28;20052;-76
2024/03/30 19:47:16;;;;;;;27.98;11.73;;;;;;;17.73;86.88;101568.31;10447383;28;20056;-77
2024/03/30 19:52:39;;;;;;;17.85;6.22;;;;;;;17.63;87.86;101575.47;10433772;28;20489;-76
2024/03/30 19:58:03;;;;;;;21.52;8.80;;;;;;;17.73;75.49;101576.31;10446949;28;20111;-76
2024/03/30 20:03:25;;;;;;;19.40;8.18;;;;;;;17.76;66.98;101576.34;10466413;28;20520;-76
2024/03/30 20:08:48;;;;;;;51.00;28.40;;;;;;;17.69;60.93;101583.47;10440485;28;20053;-76
2024/03/30 20:14:12;;;;;;;17.02;5.28;;;;;;;17.46;66.71;101579.84;10454372;28;20501;-77
2024/03/30 20:19:35;;;;;;;14.25;5.00;;;;;;;17.33;68.25;101591.41;10467999;28;20045;-76
2024/03/30 20:24:57;;;;;;;15.20;4.75;;;;;;;17.27;67.97;101592.28;10468125;28;20053;-77
2024/03/30 20:30:22;;;;;;;14.57;4.75;;;;;;;17.45;64.78;101591.44;10453729;28;20067;-76
2024/03/30 20:35:44;;;;;;;13.82;5.40;;;;;;;17.57;60.95;101591.44;10450971;28;20060;-77
2024/03/30 20:41:08;;;;;;;19.42;5.85;;;;;;;17.37;60.93;101596.78;10465438;28;20061;-77
2024/03/30 20:46:32;;;;;;;19.02;4.53;;;;;;;17.49;58.47;101594.09;10438034;28;20500;-77
2024/03/30 20:51:54;;;;;;;14.75;4.78;;;;;;;17.24;60.27;101594.97;10452350;28;20057;-77
2024/03/30 20:57:17;;;;;;;13.88;6.60;;;;;;;17.02;65.70;101603.81;10452297;28;20567;-78
2024/03/30 21:02:41;;;;;;;63.25;29.40;;;;;;;17.03;68.83;101601.16;10443496;28;20049;-77
2024/03/30 21:08:04;;;;;;;24.30;7.30;;;;;;;16.84;71.12;101611.75;10450824;28;20051;-76
2024/03/30 21:13:27;;;;;;;17.70;5.30;;;;;;;16.56;79.54;101603.59;10437892;28;20056;-78
2024/03/30 21:18:51;;;;;;;18.77;7.13;;;;;;;16.46;83.67;101614.22;10441795;28;20095;-78
2024/03/30 21:24:13;;;;;;;16.92;7.50;;;;;;;15.81;92.91;101623.56;10451341;28;20037;-79
2024/03/30 21:29:36;;;;;;;21.67;7.13;;;;;;;15.52;97.26;101625.03;10451029;28;20497;-78
2024/03/30 21:35:01;;;;;;;26.02;8.45;;;;;;;15.41;98.47;101621.41;10451039;28;20044;-78
2024/03/30 21:40:23;;;;;;;43.17;19.65;;;;;;;15.47;100.00;101611.72;10395231;28;20183;-78
2024/03/30 21:45:53;;;;;;;22.63;8.57;;;;;;;15.33;100.00;101623.09;10450305;28;20081;-78
2024/03/30 21:51:17;;;;;;;28.67;11.32;;;;;;;15.23;100.00;101621.22;10449926;28;20059;-78
2024/03/30 21:56:39;;;;;;;19.20;8.40;;;;;;;15.11;100.00;101621.97;10436723;28;20053;-78
2024/03/30 22:02:02;;;;;;;20.70;7.53;;;;;;;14.93;100.00;101629.75;10434341;28;20139;-78
2024/03/30 22:07:26;;;;;;;15.75;6.60;;;;;;;14.64;100.00;101616.09;10437243;28;20045;-78
2024/03/30 22:12:48;;;;;;;18.25;5.60;;;;;;;14.63;100.00;101616.97;10463259;28;20052;-78
2024/03/30 22:18:11;;;;;;;14.60;5.05;;;;;;;14.77;100.00;101604.72;10428422;28;20063;-78
2024/03/30 22:23:35;;;;;;;14.32;5.32;;;;;;;14.67;100.00;101602.84;10436580;28;20052;-78
2024/03/30 22:28:58;;;;;;;13.27;5.43;;;;;;;14.44;100.00;101597.22;10435222;28;20055;-78
2024/03/30 22:34:20;;;;;;;12.55;5.55;;;;;;;14.28;100.00;101600.53;10447773;28;20459;-77
2024/03/30 22:39:49;;;;;;;17.80;4.80;;;;;;;14.23;100.00;101596.91;10490563;28;20452;-77
2024/03/30 22:45:11;;;;;;;;;;;;;;;14.26;100.00;101587.22;10431352;28;20053;-78
2024/03/30 22:50:33;;;;;;;13.30;5.63;;;;;;;14.26;100.00;101591.63;10435132;28;19924;-79
2024/03/30 22:55:59;;;;;;;15.00;5.85;;;;;;;14.19;100.00;101588.00;10463362;28;20454;-78
2024/03/30 23:01:22;;;;;;;14.13;4.82;;;;;;;14.16;100.00;101579.13;10432966;28;20220;-78
2024/03/30 23:06:45;;;;;;;15.88;4.95;;;;;;;14.11;100.00;101576.38;10449205;28;20507;-78
2024/03/30 23:12:09;;;;;;;16.10;5.75;;;;;;;13.77;100.00;101571.47;10434365;28;20106;-78
2024/03/30 23:17:32;;;;;;;13.98;5.15;;;;;;;13.64;100.00;101578.34;10434453;28;20071;-78
2024/03/30 23:22:54;;;;;;;16.48;5.75;;;;;;;13.53;100.00;101571.94;10460810;28;20069;-78
2024/03/30 23:28:19;;;;;;;16.10;5.10;;;;;;;13.69;100.00;101570.44;10431436;28;20053;-78
2024/03/30 23:33:41;;;;;;;12.93;5.00;;;;;;;13.76;100.00;101565.25;10448498;28;20554;-78
2024/03/30 23:39:04;;;;;;;10.88;4.72;;;;;;;13.50;100.00;101564.84;10441929;28;20045;-78
2024/03/30 23:44:28;;;;;;;14.30;5.95;;;;;;;13.54;100.00;101561.34;10441773;28;20049;-78
2024/03/30 23:49:51;;;;;;;16.40;5.22;;;;;;;13.62;100.00;101561.47;10441374;28;20049;-78
2024/03/30 23:55:16;;;;;;;9.07;4.35;;;;;;;13.44;100.00;101545.28;10469451;28;20049;-78
